createdAt,value
2022-08-30T00:01:28.354Z,99108.97
2022-08-30T00:03:58.360Z,99117.16
2022-08-30T00:06:28.489Z,99120.78
2022-08-30T00:08:56.320Z,99120.19
2022-08-30T00:11:28.325Z,99101.03
2022-08-30T00:13:56.983Z,99100.78
2022-08-30T00:16:26.380Z,99121.19
2022-08-30T00:18:54.069Z,99112.75
2022-08-30T00:21:21.373Z,99123.34
2022-08-30T00:23:48.186Z,99123.50
2022-08-30T00:26:15.106Z,99127.78
2022-08-30T00:28:41.918Z,99122.47
2022-08-30T00:31:08.912Z,99116.81
2022-08-30T00:33:35.942Z,99119.31
2022-08-30T00:36:03.161Z,99129.50
2022-08-30T00:38:30.083Z,99119.97
2022-08-30T00:40:57.352Z,99125.94
2022-08-30T00:43:29.343Z,99129.28
2022-08-30T00:45:57.459Z,99101.88
2022-08-30T00:48:24.478Z,99131.31
2022-08-30T00:51:13.026Z,99141.47
2022-08-30T00:53:47.302Z,99106.47
2022-08-30T00:56:14.599Z,99130.50
2022-08-30T00:58:49.203Z,99124.16
2022-08-30T01:01:16.670Z,99108.88
2022-08-30T01:03:44.744Z,99130.13
2022-08-30T01:06:15.572Z,99121.19
2022-08-30T01:08:44.413Z,99129.16
2022-08-30T01:11:13.725Z,99126.56
2022-08-30T01:13:41.037Z,99135.72
2022-08-30T01:16:08.189Z,99140.38
2022-08-30T01:18:38.007Z,99128.75
2022-08-30T01:21:36.885Z,99126.84
2022-08-30T01:24:05.733Z,99133.63
2022-08-30T01:26:34.747Z,99132.22
2022-08-30T01:29:07.201Z,99140.22
2022-08-30T01:31:36.907Z,99133.03
2022-08-30T01:34:07.519Z,99126.16
2022-08-30T01:36:44.660Z,99124.97
2022-08-30T01:39:17.805Z,99129.59
2022-08-30T01:41:45.491Z,99134.16
2022-08-30T01:44:13.840Z,99133.53
2022-08-30T01:46:46.568Z,99122.34
2022-08-30T01:49:23.129Z,99135.19
2022-08-30T01:52:01.148Z,99123.06
2022-08-30T01:54:36.624Z,99150.00
2022-08-30T01:57:07.957Z,99150.13
2022-08-30T01:59:35.026Z,99134.75
2022-08-30T02:02:02.592Z,99121.97
2022-08-30T02:04:29.467Z,99144.75
2022-08-30T02:06:56.315Z,99136.19
2022-08-30T02:09:23.215Z,99155.25
2022-08-30T02:11:50.341Z,99137.00
2022-08-30T02:14:17.179Z,99136.91
2022-08-30T02:16:48.531Z,99146.56
2022-08-30T02:19:15.740Z,99152.28
2022-08-30T02:21:42.535Z,99139.53
2022-08-30T02:24:09.410Z,99146.19
2022-08-30T02:26:36.621Z,99144.31
2022-08-30T02:29:05.895Z,99138.22
2022-08-30T02:31:33.282Z,99134.03
2022-08-30T02:34:00.416Z,99116.63
2022-08-30T02:36:27.886Z,99130.44
2022-08-30T02:38:54.685Z,99119.97
2022-08-30T02:41:23.694Z,99125.47
2022-08-30T02:43:51.592Z,99140.81
2022-08-30T02:46:18.947Z,99118.06
2022-08-30T02:48:45.883Z,99117.22
2022-08-30T02:51:14.396Z,99128.19
2022-08-30T02:53:43.861Z,99130.34
2022-08-30T02:56:13.418Z,99132.13
2022-08-30T02:58:42.504Z,99126.75
2022-08-30T03:01:12.320Z,99134.16
2022-08-30T03:03:41.172Z,99121.00
2022-08-30T03:06:08.295Z,99113.16
2022-08-30T03:08:35.129Z,99132.13
2022-08-30T03:11:02.735Z,99128.31
2022-08-30T03:13:29.758Z,99108.16
2022-08-30T03:15:57.068Z,99119.47
2022-08-30T03:18:24.398Z,99115.66
2022-08-30T03:20:54.613Z,99115.19
2022-08-30T03:23:23.693Z,99117.81
2022-08-30T03:25:51.007Z,99087.75
2022-08-30T03:28:17.855Z,99106.50
2022-08-30T03:30:44.687Z,99093.59
2022-08-30T03:33:11.598Z,99099.56
2022-08-30T03:35:38.472Z,99092.00
2022-08-30T03:38:06.323Z,99114.31
2022-08-30T03:40:33.327Z,99105.38
2022-08-30T03:43:00.677Z,99111.63
2022-08-30T03:45:27.687Z,99120.19
2022-08-30T03:47:54.528Z,99113.38
2022-08-30T03:50:21.349Z,99093.13
2022-08-30T03:52:48.919Z,99111.50
2022-08-30T03:55:15.772Z,99072.09
2022-08-30T03:57:43.893Z,99112.31
2022-08-30T04:00:12.769Z,99111.63
2022-08-30T04:02:40.605Z,99105.59
2022-08-30T04:05:09.497Z,99115.84
2022-08-30T04:07:36.680Z,99114.41
2022-08-30T04:10:07.000Z,99118.56
2022-08-30T04:12:34.049Z,99109.16
2022-08-30T04:15:00.853Z,99111.06
2022-08-30T04:17:27.974Z,99086.03
2022-08-30T04:19:54.853Z,99114.66
2022-08-30T04:22:21.997Z,99109.25
2022-08-30T04:24:48.860Z,99110.69
2022-08-30T04:27:15.683Z,99108.63
2022-08-30T04:29:42.529Z,99109.47
2022-08-30T04:32:09.423Z,99124.41
2022-08-30T04:34:36.364Z,99112.94
2022-08-30T04:37:03.202Z,99127.25
2022-08-30T04:39:31.073Z,99130.09
2022-08-30T04:41:58.745Z,99120.94
2022-08-30T04:44:27.414Z,99107.63
2022-08-30T04:46:54.686Z,99115.03
2022-08-30T04:49:22.859Z,99126.25
2022-08-30T04:51:49.758Z,99131.34
2022-08-30T04:54:17.256Z,99135.31
2022-08-30T04:56:44.178Z,99133.84
2022-08-30T04:59:11.021Z,99148.06
2022-08-30T05:01:44.725Z,99149.75
2022-08-30T05:04:13.802Z,99146.41
2022-08-30T05:06:40.774Z,99138.25
2022-08-30T05:09:07.585Z,99151.25
2022-08-30T05:11:34.504Z,99160.31
2022-08-30T05:14:01.366Z,99163.66
2022-08-30T05:16:28.273Z,99159.38
2022-08-30T05:18:55.147Z,99161.03
2022-08-30T05:21:26.418Z,99162.13
2022-08-30T05:23:59.954Z,99171.91
2022-08-30T05:26:31.496Z,99179.63
2022-08-30T05:28:58.899Z,99180.22
2022-08-30T05:31:33.235Z,99187.72
2022-08-30T05:34:00.606Z,99172.72
2022-08-30T05:36:30.667Z,99193.94
2022-08-30T05:38:58.119Z,99171.75
2022-08-30T05:41:27.175Z,99181.88
2022-08-30T05:44:00.312Z,99176.09
2022-08-30T05:49:07.139Z,99178.56
2022-08-30T05:51:40.214Z,99174.13
2022-08-30T05:54:11.837Z,99174.13
2022-08-30T05:56:41.460Z,99169.28
2022-08-30T05:59:09.158Z,99165.22
2022-08-30T06:01:39.967Z,99171.06
2022-08-30T06:04:09.743Z,99155.22
2022-08-30T06:06:39.680Z,99163.69
2022-08-30T06:09:09.225Z,99149.03
2022-08-30T06:11:36.784Z,99160.25
2022-08-30T06:14:05.133Z,99156.69
2022-08-30T06:16:32.087Z,99150.84
2022-08-30T06:19:00.323Z,99169.06
2022-08-30T06:21:31.389Z,99158.72
2022-08-30T06:23:59.236Z,99164.34
2022-08-30T06:26:28.841Z,99167.44
2022-08-30T06:28:57.252Z,99166.25
2022-08-30T06:31:26.045Z,99172.44
2022-08-30T06:33:53.597Z,99167.06
2022-08-30T06:36:23.613Z,99173.84
2022-08-30T06:38:55.772Z,99167.19
2022-08-30T06:41:30.736Z,99167.44
2022-08-30T06:44:00.194Z,99152.19
2022-08-30T06:46:32.440Z,99165.16
2022-08-30T06:49:00.713Z,99157.41
2022-08-30T06:51:35.481Z,99144.28
2022-08-30T06:54:04.661Z,99139.50
2022-08-30T06:56:31.670Z,99151.91
2022-08-30T06:58:58.703Z,99142.47
2022-08-30T07:01:28.860Z,99150.25
2022-08-30T07:03:58.125Z,99143.78
2022-08-30T07:06:26.114Z,99150.72
2022-08-30T07:08:56.517Z,99150.34
2022-08-30T07:11:35.838Z,99132.34
2022-08-30T07:14:04.218Z,99149.63
2022-08-30T07:16:31.133Z,99127.44
2022-08-30T07:18:58.879Z,99149.03
2022-08-30T07:21:34.721Z,99149.63
2022-08-30T07:24:02.283Z,99139.25
2022-08-30T07:26:35.110Z,99142.78
2022-08-30T07:29:02.296Z,99151.00
2022-08-30T07:31:29.945Z,99152.44
2022-08-30T07:33:57.120Z,99118.44
2022-08-30T07:36:24.730Z,99099.84
2022-08-30T07:38:53.456Z,99111.00
2022-08-30T07:41:39.154Z,99153.88
2022-08-30T07:44:08.452Z,99141.44
2022-08-30T07:46:36.746Z,99152.06
2022-08-30T07:49:04.611Z,99155.97
2022-08-30T07:51:32.552Z,99154.78
2022-08-30T07:54:00.507Z,99160.22
2022-08-30T07:56:27.841Z,99152.91
2022-08-30T07:58:55.310Z,99153.34
2022-08-30T08:01:23.597Z,99136.06
2022-08-30T08:03:51.058Z,99148.19
2022-08-30T08:06:21.161Z,99131.47
2022-08-30T08:08:48.429Z,99134.75
2022-08-30T08:11:30.390Z,99149.75
2022-08-30T08:14:00.049Z,99132.00
2022-08-30T08:16:29.938Z,99143.13
2022-08-30T08:18:57.778Z,99143.97
2022-08-30T08:21:26.260Z,99132.25
2022-08-30T08:23:53.792Z,99140.31
2022-08-30T08:26:21.404Z,99148.22
2022-08-30T08:28:48.345Z,99148.91
2022-08-30T08:31:21.590Z,99145.91
2022-08-30T08:33:56.223Z,99152.69
2022-08-30T08:36:23.195Z,99142.84
2022-08-30T08:38:50.124Z,99132.88
2022-08-30T08:42:10.116Z,99140.66
2022-08-30T08:44:56.548Z,99131.81
2022-08-30T08:47:48.996Z,99135.56
2022-08-30T08:50:20.871Z,99117.84
2022-08-30T08:53:50.432Z,99115.78
2022-08-30T08:56:19.485Z,99120.75
2022-08-30T08:58:51.925Z,99117.44
2022-08-30T09:01:23.827Z,99108.31
2022-08-30T09:03:51.784Z,99103.97
2022-08-30T09:07:01.340Z,99112.91
2022-08-30T09:09:35.656Z,99108.25
2022-08-30T09:12:05.191Z,99106.28
2022-08-30T09:14:46.159Z,99089.34
2022-08-30T09:17:20.378Z,99103.53
2022-08-30T09:19:53.532Z,99111.03
2022-08-30T09:22:36.130Z,99099.63
2022-08-30T09:25:06.565Z,99103.91
2022-08-30T09:27:37.550Z,99104.59
2022-08-30T09:30:21.425Z,99085.72
2022-08-30T09:32:54.594Z,99108.72
2022-08-30T09:35:37.588Z,99092.97
2022-08-30T09:38:17.957Z,99079.88
2022-08-30T09:41:02.343Z,99092.97
2022-08-30T09:43:34.333Z,99083.22
2022-08-30T09:46:01.468Z,99074.31
2022-08-30T09:48:43.898Z,99085.13
2022-08-30T09:51:10.924Z,99080.06
2022-08-30T09:54:16.586Z,99076.38
2022-08-30T09:56:53.359Z,99065.41
2022-08-30T10:00:21.534Z,99054.56
2022-08-30T10:03:35.648Z,99065.13
2022-08-30T10:06:15.308Z,99045.50
2022-08-30T10:08:57.656Z,99069.34
2022-08-30T10:11:49.181Z,99035.88
2022-08-30T10:14:34.521Z,99063.06
2022-08-30T10:17:45.893Z,99055.66
2022-08-30T10:20:38.812Z,99043.09
2022-08-30T10:23:16.859Z,99053.66
2022-08-30T10:26:19.461Z,99038.16
2022-08-30T10:28:52.394Z,99031.38
2022-08-30T10:31:55.334Z,99031.97
2022-08-30T10:34:57.499Z,99025.19
2022-08-30T10:37:29.838Z,99022.06
2022-08-30T10:40:25.357Z,99017.09
2022-08-30T10:42:54.168Z,99000.78
2022-08-30T10:45:22.203Z,99019.50
2022-08-30T10:48:19.347Z,99015.22
2022-08-30T10:50:53.586Z,99017.88
2022-08-30T10:54:01.969Z,99016.69
2022-08-30T10:56:29.796Z,99015.69
2022-08-30T10:58:59.114Z,99018.03
2022-08-30T11:02:12.995Z,99020.38
2022-08-30T11:05:06.712Z,99011.88
2022-08-30T11:08:02.369Z,99000.94
2022-08-30T11:11:13.087Z,98991.50
2022-08-30T11:13:41.603Z,99010.56
2022-08-30T11:16:15.777Z,98999.44
2022-08-30T11:18:51.033Z,99004.56
2022-08-30T11:21:24.706Z,99012.84
2022-08-30T11:24:11.466Z,99012.66
2022-08-30T11:26:50.801Z,99003.50
2022-08-30T11:29:26.953Z,99010.59
2022-08-30T11:31:56.648Z,98998.19
2022-08-30T11:34:45.342Z,99008.09
2022-08-30T11:37:31.162Z,99009.22
2022-08-30T11:40:03.838Z,98994.13
2022-08-30T11:42:32.492Z,99002.88
2022-08-30T11:45:25.102Z,99006.59
2022-08-30T11:48:07.302Z,98997.88
2022-08-30T11:50:48.446Z,98989.22
2022-08-30T11:53:46.776Z,99008.84
2022-08-30T11:56:21.307Z,99010.28
2022-08-30T11:59:00.117Z,99001.41
2022-08-30T12:01:50.318Z,99002.56
2022-08-30T12:04:37.769Z,98981.88
2022-08-30T12:07:07.934Z,98995.25
2022-08-30T12:09:35.210Z,98988.88
2022-08-30T12:12:04.841Z,98994.31
2022-08-30T12:14:48.648Z,98977.88
2022-08-30T12:18:15.471Z,98986.72
2022-08-30T12:20:48.839Z,98989.09
2022-08-30T12:23:30.230Z,98985.19
2022-08-30T12:26:51.478Z,98975.91
2022-08-30T12:29:21.282Z,98985.66
2022-08-30T12:31:54.173Z,98995.66
2022-08-30T12:34:50.284Z,98964.56
2022-08-30T12:37:25.940Z,98977.03
2022-08-30T12:40:21.023Z,98982.19
2022-08-30T12:43:06.046Z,98968.75
2022-08-30T12:45:42.956Z,98977.47
2022-08-30T12:48:14.614Z,98968.66
2022-08-30T12:50:59.198Z,98969.44
2022-08-30T12:53:42.786Z,98963.91
2022-08-30T12:56:21.261Z,98968.66
2022-08-30T12:59:02.053Z,98954.97
2022-08-30T13:01:36.232Z,98955.28
2022-08-30T13:04:22.294Z,98942.75
2022-08-30T13:06:55.978Z,98960.69
2022-08-30T13:09:32.222Z,98952.88
2022-08-30T13:12:06.969Z,98957.16
2022-08-30T13:14:37.363Z,98940.75
2022-08-30T13:17:18.905Z,98948.31
2022-08-30T13:20:24.523Z,98933.97
2022-08-30T13:23:10.676Z,98929.78
2022-08-30T13:25:39.645Z,98922.03
2022-08-30T13:28:07.950Z,98908.31
2022-08-30T13:30:35.828Z,98911.16
2022-08-30T13:33:02.924Z,98897.66
2022-08-30T13:35:31.057Z,98901.75
2022-08-30T13:38:00.099Z,98917.16
2022-08-30T13:40:27.069Z,98910.66
2022-08-30T13:42:54.027Z,98911.28
2022-08-30T13:48:07.948Z,98904.31
2022-08-30T13:50:34.875Z,98900.06
2022-08-30T13:53:01.706Z,98896.75
2022-08-30T13:55:29.054Z,98893.44
2022-08-30T13:57:57.252Z,98863.34
2022-08-30T14:00:25.826Z,98882.19
2022-08-30T14:02:55.953Z,98882.28
2022-08-30T14:05:48.386Z,98873.00
2022-08-30T14:11:11.741Z,98873.81
2022-08-30T14:16:31.283Z,98858.97
2022-08-30T14:19:00.078Z,98870.00
2022-08-30T14:21:27.705Z,98864.09
2022-08-30T14:23:56.864Z,98870.00
2022-08-30T14:26:45.203Z,98869.72
2022-08-30T14:29:16.449Z,98858.09
2022-08-30T14:31:44.557Z,98867.78
2022-08-30T14:34:12.169Z,98840.44
2022-08-30T14:36:42.264Z,98862.00
2022-08-30T14:39:15.035Z,98863.94
2022-08-30T14:41:47.406Z,98859.44
2022-08-30T14:44:16.309Z,98846.06
2022-08-30T14:46:44.099Z,98867.88
2022-08-30T14:49:12.589Z,98857.88
2022-08-30T14:51:40.560Z,98840.63
2022-08-30T14:54:07.739Z,98817.63
2022-08-30T14:56:38.090Z,98843.38
2022-08-30T14:59:05.244Z,98858.34
2022-08-30T15:01:33.934Z,98845.22
2022-08-30T15:04:07.290Z,98837.84
2022-08-30T15:06:36.367Z,98854.75
2022-08-30T15:09:04.359Z,98832.84
2022-08-30T15:11:31.417Z,98832.00
2022-08-30T15:14:00.275Z,98852.56
2022-08-30T15:16:33.010Z,98840.38
2022-08-30T15:19:00.331Z,98842.19
2022-08-30T15:21:35.270Z,98842.38
2022-08-30T15:24:03.788Z,98834.16
2022-08-30T15:26:30.992Z,98819.75
2022-08-30T15:28:57.889Z,98821.41
2022-08-30T15:31:28.447Z,98826.56
2022-08-30T15:33:55.530Z,98830.34
2022-08-30T15:36:25.260Z,98835.34
2022-08-30T15:38:55.776Z,98820.38
2022-08-30T15:41:23.826Z,98830.09
2022-08-30T15:43:52.763Z,98825.22
2022-08-30T15:46:32.094Z,98822.66
2022-08-30T15:49:10.513Z,98833.25
2022-08-30T15:51:41.576Z,98822.06
2022-08-30T15:54:11.664Z,98820.13
2022-08-30T15:56:39.348Z,98818.88
2022-08-30T15:59:07.082Z,98821.88
2022-08-30T16:01:34.469Z,98809.53
2022-08-30T16:04:02.014Z,98813.09
2022-08-30T16:06:34.717Z,98815.03
2022-08-30T16:09:01.783Z,98784.59
2022-08-30T16:11:28.614Z,98814.66
2022-08-30T16:13:57.390Z,98817.69
2022-08-30T16:16:25.141Z,98811.53
2022-08-30T16:18:54.223Z,98808.44
2022-08-30T16:21:33.318Z,98807.84
2022-08-30T16:24:03.636Z,98810.63
2022-08-30T16:26:32.842Z,98810.34
2022-08-30T16:28:59.898Z,98806.94
2022-08-30T16:31:30.297Z,98802.44
2022-08-30T16:34:02.832Z,98809.34
2022-08-30T16:36:33.070Z,98795.28
2022-08-30T16:38:59.916Z,98796.38
2022-08-30T16:41:27.085Z,98811.13
2022-08-30T16:43:55.119Z,98799.75
2022-08-30T16:46:27.176Z,98801.22
2022-08-30T16:48:57.885Z,98799.75
2022-08-30T16:51:28.411Z,98778.91
2022-08-30T16:53:57.755Z,98794.16
2022-08-30T16:56:26.851Z,98801.47
2022-08-30T16:59:01.182Z,98780.81
2022-08-30T17:01:31.771Z,98791.97
2022-08-30T17:03:59.377Z,98782.72
2022-08-30T17:06:26.828Z,98790.97
2022-08-30T17:08:56.210Z,98795.16
2022-08-30T17:11:23.803Z,98790.75
2022-08-30T17:13:51.106Z,98803.88
2022-08-30T17:16:22.326Z,98805.41
2022-08-30T17:18:55.675Z,98791.25
2022-08-30T17:21:23.285Z,98811.66
2022-08-30T17:23:50.738Z,98818.00
2022-08-30T17:26:18.575Z,98825.50
2022-08-30T17:28:45.733Z,98831.13
2022-08-30T17:31:14.904Z,98833.50
2022-08-30T17:33:43.158Z,98818.13
2022-08-30T17:36:12.856Z,98839.84
2022-08-30T17:38:40.025Z,98837.69
2022-08-30T17:41:12.017Z,98842.53
2022-08-30T17:43:39.216Z,98843.06
2022-08-30T17:46:18.391Z,98851.72
2022-08-30T17:48:46.066Z,98832.88
2022-08-30T17:51:13.225Z,98829.44
2022-08-30T17:53:40.106Z,98858.44
2022-08-30T17:56:10.006Z,98844.38
2022-08-30T17:58:36.941Z,98852.34
2022-08-30T18:01:14.358Z,98865.94
2022-08-30T18:03:42.166Z,98850.41
2022-08-30T18:06:13.632Z,98834.16
2022-08-30T18:08:41.162Z,98862.00
2022-08-30T18:11:08.662Z,98866.66
2022-08-30T18:13:35.602Z,98870.47
2022-08-30T18:16:04.047Z,98865.84
2022-08-30T18:18:31.512Z,98859.22
2022-08-30T18:21:00.015Z,98879.09
2022-08-30T18:23:28.061Z,98869.66
2022-08-30T18:25:59.027Z,98878.47
2022-08-30T18:28:26.521Z,98869.53
2022-08-30T18:30:56.724Z,98877.31
2022-08-30T18:33:25.283Z,98862.91
2022-08-30T18:35:53.515Z,98885.09
2022-08-30T18:38:23.789Z,98886.59
2022-08-30T18:40:52.666Z,98880.81
2022-08-30T18:43:24.601Z,98882.63
2022-08-30T18:45:57.514Z,98897.41
2022-08-30T18:48:27.219Z,98896.72
2022-08-30T18:50:55.445Z,98894.56
2022-08-30T18:53:28.627Z,98904.84
2022-08-30T18:55:57.175Z,98888.41
2022-08-30T18:58:24.057Z,98901.84
2022-08-30T19:00:51.069Z,98906.66
2022-08-30T19:03:18.789Z,98913.09
2022-08-30T19:05:46.077Z,98907.13
2022-08-30T19:08:13.624Z,98889.41
2022-08-30T19:10:41.185Z,98896.19
2022-08-30T19:13:09.046Z,98911.75
2022-08-30T19:15:36.446Z,98915.53
2022-08-30T19:18:16.711Z,98921.69
2022-08-30T19:20:45.974Z,98914.72
2022-08-30T19:23:14.523Z,98922.34
2022-08-30T19:25:41.809Z,98908.56
2022-08-30T19:28:10.187Z,98918.69
2022-08-30T19:30:37.648Z,98928.63
2022-08-30T19:33:05.739Z,98919.31
2022-08-30T19:35:33.589Z,98912.69
2022-08-30T19:38:00.639Z,98919.66
2022-08-30T19:40:28.331Z,98935.03
2022-08-30T19:42:55.410Z,98925.91
2022-08-30T19:45:23.244Z,98927.41
2022-08-30T19:47:50.960Z,98935.19
2022-08-30T19:50:19.037Z,98923.56
2022-08-30T19:52:52.751Z,98928.00
2022-08-30T19:55:23.751Z,98919.72
2022-08-30T19:57:55.992Z,98920.22
2022-08-30T20:00:23.373Z,98922.84
2022-08-30T20:02:51.279Z,98939.88
2022-08-30T20:05:19.165Z,98926.09
2022-08-30T20:07:48.413Z,98928.06
2022-08-30T20:10:19.813Z,98941.13
2022-08-30T20:12:49.860Z,98934.00
2022-08-30T20:15:18.292Z,98939.94
2022-08-30T20:18:03.438Z,98925.72
2022-08-30T20:20:33.473Z,98942.59
2022-08-30T20:23:03.509Z,98938.28
2022-08-30T20:25:30.934Z,98955.28
2022-08-30T20:27:59.331Z,98941.69
2022-08-30T20:30:26.157Z,98946.16
2022-08-30T20:32:54.636Z,98938.50
2022-08-30T20:35:23.753Z,98949.63
2022-08-30T20:37:50.967Z,98953.78
2022-08-30T20:40:18.918Z,98949.59
2022-08-30T20:42:46.627Z,98938.81
2022-08-30T20:45:15.978Z,98928.44
2022-08-30T20:47:43.443Z,98932.38
2022-08-30T20:50:14.609Z,98930.22
2022-08-30T20:52:42.258Z,98926.72
2022-08-30T20:55:11.221Z,98915.16
2022-08-30T20:57:39.176Z,98916.28
2022-08-30T21:00:11.494Z,98915.59
2022-08-30T21:02:46.258Z,98923.69
2022-08-30T21:05:15.466Z,98911.22
2022-08-30T21:07:45.811Z,98925.31
2022-08-30T21:10:13.716Z,98923.00
2022-08-30T21:12:40.678Z,98918.03
2022-08-30T21:15:33.840Z,98920.69
2022-08-30T21:17:55.542Z,98920.31
2022-08-30T21:20:22.542Z,98923.94
2022-08-30T21:22:49.538Z,98921.44
2022-08-30T21:25:16.358Z,98904.94
2022-08-30T21:27:43.954Z,98925.19
2022-08-30T21:30:12.900Z,98908.56
2022-08-30T21:32:39.965Z,98911.06
2022-08-30T21:35:26.844Z,98934.22
2022-08-30T21:37:54.078Z,98932.84
2022-08-30T21:40:21.117Z,98921.38
2022-08-30T21:42:47.964Z,98920.34
2022-08-30T21:45:15.401Z,98950.97
2022-08-30T21:47:42.378Z,98941.88
2022-08-30T21:50:09.575Z,98934.81
2022-08-30T21:52:36.406Z,98938.94
2022-08-30T21:55:04.513Z,98940.94
2022-08-30T21:57:32.429Z,98934.44
2022-08-30T21:59:59.265Z,98919.72
2022-08-30T22:02:26.445Z,98925.53
2022-08-30T22:04:53.391Z,98946.56
2022-08-30T22:07:20.227Z,98950.59
2022-08-30T22:09:47.106Z,98937.28
2022-08-30T22:12:14.059Z,98922.78
2022-08-30T22:14:41.039Z,98944.13
2022-08-30T22:17:07.945Z,98943.19
2022-08-30T22:19:34.805Z,98948.16
2022-08-30T22:22:02.010Z,98950.47
2022-08-30T22:24:32.506Z,98957.88
2022-08-30T22:27:03.387Z,98949.41
2022-08-30T22:29:30.433Z,98956.53
2022-08-30T22:31:57.329Z,98962.94
2022-08-30T22:34:24.587Z,98945.47
2022-08-30T22:36:51.574Z,98957.94
2022-08-30T22:39:18.516Z,98959.22
2022-08-30T22:41:47.218Z,98966.03
2022-08-30T22:44:14.071Z,98954.25
2022-08-30T22:46:40.910Z,98947.06
2022-08-30T22:49:09.803Z,98961.16
2022-08-30T22:51:38.038Z,98965.09
2022-08-30T22:54:07.489Z,98963.41
2022-08-30T22:56:36.728Z,98935.19
2022-08-30T22:59:04.293Z,98966.22
2022-08-30T23:01:43.062Z,98970.16
2022-08-30T23:04:11.280Z,98975.97
2022-08-30T23:06:38.233Z,98974.28
2022-08-30T23:09:06.690Z,98968.03
2022-08-30T23:11:34.565Z,98974.59
2022-08-30T23:14:03.505Z,98973.66
2022-08-30T23:16:30.655Z,98972.44
2022-08-30T23:18:57.610Z,98960.91
2022-08-30T23:21:28.794Z,98966.06
2022-08-30T23:24:15.312Z,98961.94
2022-08-30T23:27:03.374Z,98986.06
2022-08-30T23:29:50.129Z,98981.06
2022-08-30T23:32:36.247Z,98969.13
2022-08-30T23:35:29.445Z,98975.25
2022-08-30T23:38:21.025Z,98970.13
2022-08-30T23:41:06.798Z,98962.19
2022-08-30T23:43:52.029Z,98947.09
2022-08-30T23:46:39.508Z,98948.47
2022-08-30T23:49:25.032Z,98948.88
2022-08-30T23:52:10.513Z,98956.28
2022-08-30T23:54:57.510Z,98946.66
2022-08-30T23:57:44.888Z,98945.09
